Details for Ryanair at EDDB




Go Back


Latest METAR
Local Time

EDDB 201450Z 05011KT 9999 FEW036 SCT300 03/M05 Q1020 NOSIG

21/02/2018, 15:55:39

Description
Results
Ryanair Logo
Number of Pilots based at EDDB
1 Pilots Based here
Number of Ryanair Flights Departed from EDDB
7 Flights Departed
Number of Ryanair Flights Arrived at EDDB
8 Flights Arrived
Number of Ryanair Schedules Departing from EDDB
116 Schedules
Number of Ryanair Schedules Arriving at EDDB
113 Schedules
Number of Ryanair Schedules Departing from EDDB availible today
45 Schedules Today
Number of Ryanair Schedules Arriving at EDDB availible today
45 Schedules Today
Average Landing Rate at EDDB
-169 fpm
Ryanair Average Landing Rate at EDDB
-172 fpm
Total Fuel Purchased at EDDB by Ryanair
32,441.38 kgs / 71,520.27 lbs

Pilots Based at EDDB


Pilot ID
Pilot Name
Pilot Rank
No. of Flights
No. of Flying Hours
Berny Goodman
303
412.13
Content